Station: Mount Ive

  Atmospheric Gas Attenuation - ITU Rec 676-11   --------------- db/100km ---------------
Date Time Temp RH % AH g/m3 Dew Point Wind Direction Speed kph Gust kph Barometer mB Rainfall Since 9am 24GHz 47GHz 76GHz 122GHz 134GHz 241GHz
16 09:00 6 84 6.1 3.6 0 1026.1 0 14.6 24.5 33.8 88.3 74.7 254.3
10 09:00 13 25 2.84 -6.3 4 1022.3 0 7.4 18.0 19.7 50.4 30.9 101.3
09 09:00 8 46 3.8 -2.8 4 1025 0 9.6 20.4 24.3 62.8 44.1 147.0
08 09:00 4 67 4.26 -1.5 0 1028.2 0 10.7 22.2 27.4 70.9 52.3 175.3
07 09:00 2.5 91 5.24 1.2 0 1032.2 0 12.8 24.3 32.0 83.2 66.6 225.3
06 09:00 8 93 7.69 6.9 9 1033.5 0 17.9 26.9 39.9 104.3 94.9 325.2
05 09:00 8 93 7.69 6.9 9 1033.3 0 17.9 26.9 39.9 104.2 94.9 325.2
04 09:00 5 100 6.8 5 9 1034.1 0.4 16.1 26.3 37.6 98.1 86.0 293.4
03 09:00 9 100 8.82 9 17 1028.6 0.5 20.3 28.3 44.0 115.3 109.2 375.5
02 09:00 9.5 80 7.28 6.3 17 1021.3 0 17.0 25.3 36.9 96.5 86.6 296.5
01 09:00 9 48 4.23 -1.3 4 1014 0 10.5 20.4 25.2 65.2 48.1 161.5
30 09:00 9 48 4.23 -1.3 17 1017.3 0 10.5 20.6 25.3 65.5 48.3 161.9
29 09:00 8 46 3.8 -2.8 9 1024.4 0 9.6 20.4 24.3 62.7 44.1 146.9
28 09:00 7 57 4.42 -0.8 0 1028.9 0 10.9 21.7 27.0 70.0 52.4 176.0
27 09:00 7 57 4.42 -0.8 0 1028 0 10.9 21.7 27.0 69.9 52.3 175.8
26 09:00 10 74 6.96 5.7 0 1028.1 0 16.2 24.9 35.7 93.1 82.3 281.3
25 09:00 10 100 9.4 10 0 1024.9 0 21.5 28.9 45.8 120.2 115.8 398.6
24 09:00 9 73 6.44 4.5 2 1022.9 0 15.2 24.1 33.8 88.3 76.1 259.6
23 09:00 9 87 7.67 6.9 0 1024.2 0.3 17.8 26.2 38.9 101.7 92.7 317.7
22 09:00 11 1023.1
20 09:00 14 62 7.48 6.8 24 1020.8 0 17.2 24.3 35.6 93.2 84.2 288.8
19 09:00 14 42 5.07 1.3 9 1020 0 12.1 20.7 26.8 69.5 55.0 186.2
18 09:00 13.5 51 5.97 3.6 44 1028.5 0 14.0 22.4 30.5 79.3 66.5 226.4
17 09:00 13 77 8.73 9.1 2 1032.4 0 19.9 27.1 41.6 109.0 102.8 353.5
16 09:00 10.5 81 7.86 7.4 0 1028.9 0 18.1 26.2 39.1 102.4 93.8 321.9
15 09:00 11 58 5.81 3 4 1026.6 0 13.8 22.8 30.7 80.0 66.5 226.1
14 09:00 10 74 6.96 5.7 17 1023.4 0.4 16.2 24.7 35.5 92.7 81.9 280.2
13 09:00 14 57 6.88 5.6 4 1010 1 15.9 23.0 32.9 86.1 76.0 260.0
12 09:00 12 32 3.41 -3.9 4 1019.9 0 8.6 18.9 21.7 55.9 37.4 124.1
10 09:00 4 26 1.65 -13.9 4 1027.6 0 5.1 18.3 17.9 45.6 21.0 64.9
09 09:00 4 52 3.31 -5 0 1030.6 0 8.7 20.8 23.9 61.5 40.6 133.9
08 09:00 9 48 4.23 -1.3 0 1031.6 0 10.5 21.1 25.8 66.6 48.9 164.0
07 09:00 11 52 5.21 1.6 4 1028.2 0 12.5 21.9 28.6 74.2 59.2 200.5
06 09:00 7 71 5.5 2.2 0 1027.2 13.2 23.3 31.1 80.9 66.0 223.7
05 09:00 6 70 5.08 1 0 1031.2 0 12.4 23.1 30.0 77.9 61.6 208.1
04 09:00 5 84 5.71 2.6 0 1033.5 0.1 13.8 24.4 33.0 85.8 70.9 240.5
03 09:00 11 87 8.71 9 0 1033.5 0.4 19.9 27.7 42.6 111.7 105.3 362.0
02 09:00 10 87 8.18 7.9 4 1028.7 0 18.9 26.9 40.7 106.6 98.8 339.3
01 09:00 10 62 5.83 3.1 4 1022.1 0.2 13.8 22.9 31.0 80.8 67.3 229.0
31 09:00 10 87 8.18 7.9 0 1018.7 2 18.9 26.5 40.2 105.5 98.0 336.6
30 09:00 15 58 7.44 6.9 24 1016.9 0 17.1 23.9 34.9 91.3 82.4 282.6
29 09:00 14.5 52 6.47 4.9 4 1026.3 0.1 15.0 22.9 31.8 83.0 71.6 244.3
28 09:00 9.5 93 8.47 8.5 0 1025.7 0.6 19.5 27.5 42.1 110.2 103.3 354.9
27 09:00 14 57 6.88 5.6 4 1021.9 0 15.9 23.5 33.4 87.2 76.8 262.7
26 09:00 12 43 4.58 -0.1 24 1020.3 0 11.1 20.5 25.7 66.6 50.7 170.7
25 09:00 11 52 5.21 1.6 4 1024.7 0 12.5 21.8 28.4 73.9 59.0 199.9
24 09:00 12.5 71 7.81 7.4 17 1028.1 0 18.0 25.5 37.9 99.2 90.7 311.3
23 09:00 12 94 10.02 11 17 1025.6 0.8 22.7 29.3 47.3 124.3 121.6 419.4
22 09:00 11 58 5.81 3 9 1027.5 0 13.8 22.8 30.8 80.1 66.6 226.3
21 09:00 7 93 7.21 5.9 17 1027 1 16.9 26.1 38.0 99.5 88.9 304.1
20 09:00 11 64 6.41 4.4 4 1023.6 0 15.0 23.6 32.9 85.8 73.9 252.0
19 09:00 15 39 5 1.3 4 1019.2 0 11.9 20.4 26.2 67.9 53.5 181.0
18 09:00 15 58 7.44 6.9 4 1025.8 0 17.1 24.2 35.2 92.1 83.0 284.7
17 09:00 7.5 58 4.64 -0.1 0 1030.1 0 11.4 22.0 27.7 71.8 54.8 184.6
16 09:00 9 54 4.76 0.3 0 1029.4 0 11.6 21.8 27.6 71.6 55.2 186.2
15 09:00 11.5 53 5.48 2.3 17 1030.8 0 13.0 22.3 29.5 76.6 62.3 211.3
14 09:00 9 73 6.44 4.5 4 1031.1 0 15.2 24.4 34.2 89.0 76.7 261.4
13 09:00 11 87 8.71 9 4 1029.2 0 19.9 27.5 42.4 111.2 104.9 360.7
12 09:00 15 39 5 1.3 17 1026.2 0 11.9 20.6 26.4 68.5 53.8 182.1
11 09:00 15 53 6.8 5.6 9 1030.5 0 15.7 23.4 33.0 86.1 75.4 257.8
10 09:00 9.5 80 7.28 6.3 0 1029.9 0 17.0 25.6 37.3 97.4 87.2 298.6
09 09:00 11.5 76 7.85 7.4 2 1021.1 0 18.1 25.6 38.3 100.2 91.9 315.3
08 09:00 14 89 10.74 12.2 4 1017.3 0 24.2 29.6 48.8 128.5 127.9 441.5
07 09:00 18 71 10.9 12.7 4 1014.6 0 24.3 28.4 46.9 123.5 123.3 425.9
06 09:00 14.5 38 4.73 0.5 44 1022.6 0 11.4 20.2 25.5 66.1 50.9 171.9
05 09:00 14 52 6.27 4.3 17 1028.2 0 14.6 22.8 31.4 81.7 69.7 237.7
04 09:00 10 93 8.74 9 4 1021.5 0.1 20.1 27.6 42.7 112.2 106.0 364.6
03 09:00 11.5 87 8.99 9.5 0 1029 1 20.5 27.8 43.3 113.6 108.1 372.0
01 09:00 12 94 10.02 11 4 1024.4 0.9 22.7 29.3 47.3 124.2 121.5 419.0
29 09:00 13.5 94 11 12.6 1012 24.8 30.0 50.0 131.7 131.9 455.5
28 09:00 16 84 11.44 13.3 4 1015.5 0.3 25.5 30.0 50.5 132.9 134.2 463.8
27 09:00 1013.1
26 09:00 16.5 94 13.2 15.6 9 1021.8 13 29.3 33.3 58.3 153.6 159.5 552.2
25 09:00 23.5 41 8.67 9.8 6 1017.4 0 19.3 23.5 35.7 93.6 88.1 303.7
24 09:00 16.5 84 11.79 13.9 9 1022.9 2 26.2 30.8 52.0 137.0 139.0 480.8
23 09:00 21.5 50 9.43 10.6 1018.3 21.0 25.2 39.4 103.5 99.7 343.8
22 09:00 18.5 71 11.23 13.2 4 1023.5 0 24.9 29.2 48.4 127.3 127.8 441.8
21 09:00 19.5 51 8.56 9.1 9 1020.1 0 19.2 24.5 37.2 97.5 91.5 315.1
20 09:00 18 80 12.29 14.6 4 1016.3 0.6 27.2 30.9 52.9 139.3 142.7 493.7
19 09:00 16 79 10.76 12.4 9 1015.1 0 24.1 28.9 47.6 125.2 124.6 430.4
18 09:00 14 78 9.41 10.2 4 1021.3 0 21.3 27.5 43.4 113.9 109.7 377.9
17 09:00 12.5 88 9.68 10.6 4 1023.4 0 22.0 28.5 45.5 119.4 115.8 399.2
16 09:00 18 85 13.05 15.5 44 1018.8 0 28.8 32.3 56.3 148.5 153.8 532.7
15 09:00 22.5 40 7.99 8.4 33 1018.2 0 17.9 22.8 33.8 88.4 81.4 279.8
14 09:00 22 46 8.93 10.1 9 1022.2 0 19.9 24.4 37.5 98.3 93.3 321.5
13 09:00 19 63 10.27 11.8 4 1020.9 0 22.9 27.3 44.1 115.8 113.9 393.4
12 09:00 14.5 73 9.08 9.7 33 1022.8 0 20.6 26.8 41.8 109.7 104.7 360.4
11 09:00 17.5 75 11.18 13.1 33 1020 0 24.9 29.3 48.6 128.0 128.4 443.9
10 09:00 21.5 61 11.5 13.8 17 1020.9 0 25.3 28.5 47.6 125.2 126.2 436.8
09 09:00 1013.1
08 09:00 16.5 79 11.09 12.9 9 1024.5 0 24.7 29.6 49.1 129.2 129.3 446.8
07 09:00 16 84 11.44 13.3 0 1024.3 0 25.5 30.4 50.9 134.0 135.1 466.9
06 09:00 16 79 10.76 12.4 0 1024.5 0 24.1 29.2 48.0 126.3 125.5 433.6
05 09:00 16 74 10.08 11.4 4 1021.1 0 22.6 28.0 45.0 118.3 115.9 399.8
04 09:00 14 78 9.41 10.2 4 1015 0.4 21.3 27.2 43.1 113.2 109.1 376.0
02 09:00 15 89 11.41 13.2 9 1013.3 0.8 25.5 30.3 50.9 134.0 135.3 467.6
01 14:02 17 95 13.75 16.2 0 1014.7 30.4 33.8 60.0 158.3 165.8 574.2
01 13:58 17 95 13.75 16.2 0 1014.7 30.4 33.8 60.0 158.3 165.8 574.2
31 09:00 14.5 78 9.7 10.7 0 1018.9 0 21.9 27.7 44.2 116.1 112.7 388.6
30 09:00 13.5 94 11 12.6 0 1018.5 0.1 24.7 30.3 50.3 132.5 132.6 457.8

Last Refresh: 17-Jul-2020 01:27:00

Most of the information presented on this site is sourced from the Bureau of Meteorology.  Copyright in all material sourced from the Bureau of Meteorology resides with the Commonwealth of Australia.